createdAt,value
2018-05-17T00:00:21.739Z,12.02
2018-05-17T00:02:50.074Z,12.10
2018-05-17T00:05:20.595Z,12.03
2018-05-17T00:07:49.323Z,11.92
2018-05-17T00:10:17.619Z,11.79
2018-05-17T00:12:46.084Z,11.72
2018-05-17T00:15:14.412Z,11.82
2018-05-17T00:17:42.708Z,11.84
2018-05-17T00:20:12.581Z,11.79
2018-05-17T00:22:42.551Z,11.88
2018-05-17T00:25:11.668Z,11.92
2018-05-17T00:27:41.477Z,11.65
2018-05-17T00:30:10.570Z,11.65
2018-05-17T00:32:39.838Z,11.53
2018-05-17T00:35:08.730Z,11.56
2018-05-17T00:37:37.701Z,11.54
2018-05-17T00:40:06.075Z,11.58
2018-05-17T00:42:34.948Z,11.41
2018-05-17T00:45:03.257Z,11.41
2018-05-17T00:47:32.157Z,11.42
2018-05-17T00:50:01.294Z,11.58
2018-05-17T00:52:30.131Z,11.44
2018-05-17T00:54:58.502Z,11.45
2018-05-17T00:57:27.695Z,11.56
2018-05-17T00:59:55.997Z,11.62
2018-05-17T01:02:25.218Z,11.35
2018-05-17T01:04:54.274Z,11.32
2018-05-17T01:07:25.259Z,11.26
2018-05-17T01:09:54.956Z,11.24
2018-05-17T01:12:23.776Z,11.17
2018-05-17T01:14:52.701Z,11.33
2018-05-17T01:17:21.411Z,11.27
2018-05-17T01:19:49.753Z,11.34
2018-05-17T01:22:19.138Z,11.33
2018-05-17T01:24:48.315Z,11.18
2018-05-17T01:27:16.633Z,11.12
2018-05-17T01:29:45.405Z,11.23
2018-05-17T01:32:13.874Z,11.22
2018-05-17T01:34:42.937Z,11.13
2018-05-17T01:37:29.467Z,11.17
2018-05-17T01:39:59.553Z,11.16
2018-05-17T01:42:28.672Z,11.09
2018-05-17T01:44:57.846Z,11.10
2018-05-17T01:47:26.153Z,11.11
2018-05-17T01:49:54.475Z,11.07
2018-05-17T01:52:22.902Z,11.16
2018-05-17T01:54:51.197Z,11.07
2018-05-17T01:57:20.260Z,10.94
2018-05-17T01:59:48.913Z,10.90
2018-05-17T02:02:17.263Z,10.98
2018-05-17T02:04:46.445Z,10.98
2018-05-17T02:07:14.780Z,10.96
2018-05-17T02:09:43.950Z,10.97
2018-05-17T02:12:13.512Z,10.99
2018-05-17T02:14:41.812Z,11.03
2018-05-17T02:17:10.641Z,11.03
2018-05-17T02:19:39.437Z,11.10
2018-05-17T02:22:07.735Z,11.12
2018-05-17T02:24:36.939Z,10.96
2018-05-17T02:27:06.674Z,11.14
2018-05-17T02:29:35.420Z,11.05
2018-05-17T02:32:04.106Z,10.95
2018-05-17T02:34:32.397Z,10.98
2018-05-17T02:37:01.673Z,10.93
2018-05-17T02:39:30.022Z,10.89
2018-05-17T02:41:59.125Z,10.85
2018-05-17T02:44:28.369Z,10.85
2018-05-17T02:46:56.784Z,10.88
2018-05-17T02:49:26.047Z,10.93
2018-05-17T02:51:54.460Z,10.76
2018-05-17T02:54:22.898Z,10.88
2018-05-17T02:56:51.928Z,10.87
2018-05-17T02:59:20.254Z,10.86
2018-05-17T03:01:49.519Z,10.87
2018-05-17T03:04:17.839Z,10.85
2018-05-17T03:06:47.618Z,10.88
2018-05-17T03:09:15.941Z,10.90
2018-05-17T03:11:44.242Z,10.88
2018-05-17T03:14:13.052Z,10.99
2018-05-17T03:16:41.435Z,10.99
2018-05-17T03:19:10.735Z,10.97
2018-05-17T03:21:39.076Z,10.95
2018-05-17T03:24:07.902Z,10.96
2018-05-17T03:26:36.212Z,10.95
2018-05-17T03:29:07.479Z,10.97
2018-05-17T03:31:35.841Z,10.93
2018-05-17T03:34:05.114Z,10.94
2018-05-17T03:36:33.991Z,10.93
2018-05-17T03:39:02.324Z,10.92
2018-05-17T03:41:31.389Z,10.94
2018-05-17T03:44:01.255Z,11.00
2018-05-17T03:46:30.089Z,10.98
2018-05-17T03:48:59.937Z,11.03
2018-05-17T03:51:29.018Z,11.14
2018-05-17T03:53:58.054Z,11.07
2018-05-17T03:56:27.330Z,11.18
2018-05-17T03:58:57.129Z,11.11
2018-05-17T04:01:44.066Z,11.08
2018-05-17T04:04:30.845Z,11.17
2018-05-17T04:07:01.782Z,11.14
2018-05-17T04:09:30.142Z,11.20
2018-05-17T04:11:58.450Z,11.28
2018-05-17T04:14:26.939Z,11.38
2018-05-17T04:16:55.285Z,11.35
2018-05-17T04:19:26.417Z,11.34
2018-05-17T04:21:55.642Z,11.33
2018-05-17T04:24:25.494Z,11.37
2018-05-17T04:26:54.374Z,11.45
2018-05-17T04:29:24.581Z,11.39
2018-05-17T04:31:52.920Z,11.36
2018-05-17T04:34:21.780Z,11.44
2018-05-17T04:36:50.749Z,11.55
2018-05-17T04:39:19.772Z,11.53
2018-05-17T04:41:48.096Z,11.48
2018-05-17T04:44:16.387Z,11.50
2018-05-17T04:46:44.793Z,11.51
2018-05-17T04:49:14.055Z,11.62
2018-05-17T04:51:42.350Z,11.57
2018-05-17T04:54:12.022Z,11.62
2018-05-17T04:56:40.929Z,11.53
2018-05-17T04:59:09.220Z,11.56
2018-05-17T05:01:38.226Z,11.55
2018-05-17T05:04:07.342Z,11.55
2018-05-17T05:06:36.411Z,11.55
2018-05-17T05:09:06.000Z,11.62
2018-05-17T05:11:35.600Z,11.49
2018-05-17T05:14:03.914Z,11.58
2018-05-17T05:16:33.031Z,11.54
2018-05-17T05:19:02.143Z,11.62
2018-05-17T05:21:30.461Z,11.66
2018-05-17T05:23:58.880Z,11.62
2018-05-17T05:26:27.190Z,11.56
2018-05-17T05:28:55.493Z,11.67
2018-05-17T05:31:24.442Z,11.69
2018-05-17T05:33:53.513Z,11.54
2018-05-17T05:36:22.560Z,11.56
2018-05-17T05:38:50.855Z,11.64
2018-05-17T05:41:19.148Z,11.63
2018-05-17T05:43:48.662Z,11.48
2018-05-17T05:46:17.600Z,11.45
2018-05-17T05:48:46.730Z,11.53
2018-05-17T05:51:15.271Z,11.50
2018-05-17T05:53:44.268Z,11.49
2018-05-17T05:56:13.372Z,11.49
2018-05-17T05:58:42.539Z,11.50
2018-05-17T06:01:11.747Z,11.69
2018-05-17T06:03:40.885Z,11.71
2018-05-17T06:06:09.631Z,11.64
2018-05-17T06:08:37.959Z,11.66
2018-05-17T06:11:06.293Z,11.54
2018-05-17T06:13:36.009Z,11.61
2018-05-17T06:16:05.121Z,11.74
2018-05-17T06:18:35.277Z,11.78
2018-05-17T06:21:04.320Z,11.85
2018-05-17T06:23:33.905Z,12.08
2018-05-17T06:26:02.240Z,12.08
2018-05-17T06:28:32.775Z,12.20
2018-05-17T06:31:02.339Z,12.17
2018-05-17T06:33:31.078Z,12.35
2018-05-17T06:35:59.665Z,12.34
2018-05-17T06:38:28.077Z,12.28
2018-05-17T06:40:56.521Z,12.20
2018-05-17T06:43:25.800Z,12.18
2018-05-17T06:45:55.815Z,12.16
2018-05-17T06:48:24.864Z,12.26
2018-05-17T06:50:53.169Z,12.40
2018-05-17T06:53:21.881Z,12.40
2018-05-17T06:55:51.046Z,12.48
2018-05-17T06:58:19.346Z,12.44
2018-05-17T07:00:48.540Z,12.28
2018-05-17T07:03:18.475Z,12.45
2018-05-17T07:05:48.976Z,12.64
2018-05-17T07:08:18.352Z,12.60
2018-05-17T07:10:48.306Z,12.56
2018-05-17T07:13:17.406Z,12.62
2018-05-17T07:15:46.895Z,12.69
2018-05-17T07:18:15.447Z,12.62
2018-05-17T07:20:43.757Z,12.55
2018-05-17T07:23:12.045Z,12.50
2018-05-17T07:25:41.125Z,12.54
2018-05-17T07:28:09.510Z,12.62
2018-05-17T07:30:37.832Z,12.65
2018-05-17T07:33:06.222Z,12.64
2018-05-17T07:35:34.511Z,12.86
2018-05-17T07:38:03.226Z,12.95
2018-05-17T07:40:32.315Z,12.74
2018-05-17T07:43:01.233Z,12.87
2018-05-17T07:45:30.299Z,12.96
2018-05-17T07:48:00.010Z,13.02
2018-05-17T07:50:28.730Z,13.12
2018-05-17T07:52:57.817Z,13.20
2018-05-17T07:55:26.118Z,13.03
2018-05-17T07:57:55.675Z,12.97
2018-05-17T08:00:24.677Z,12.88
2018-05-17T08:02:52.986Z,13.04
2018-05-17T08:05:22.046Z,13.27
2018-05-17T08:07:51.028Z,13.25
2018-05-17T08:10:19.356Z,13.25
2018-05-17T08:12:49.196Z,13.47
2018-05-17T08:15:17.614Z,13.44
2018-05-17T08:17:47.683Z,13.31
2018-05-17T08:20:16.781Z,13.36
2018-05-17T08:22:47.236Z,13.22
2018-05-17T08:25:15.551Z,13.27
2018-05-17T08:27:44.034Z,13.67
2018-05-17T08:30:13.490Z,13.58
2018-05-17T08:32:42.105Z,13.79
2018-05-17T08:35:11.116Z,13.53
2018-05-17T08:37:40.938Z,13.54
2018-05-17T08:40:09.235Z,13.75
2018-05-17T08:42:38.570Z,13.35
2018-05-17T08:45:08.539Z,13.40
2018-05-17T08:47:37.190Z,13.67
2018-05-17T08:50:06.192Z,13.79
2018-05-17T08:52:34.538Z,13.54
2018-05-17T08:55:03.279Z,13.32
2018-05-17T08:57:33.729Z,13.37
2018-05-17T09:00:02.029Z,13.72
2018-05-17T09:02:32.486Z,13.89
2018-05-17T09:05:00.774Z,14.08
2018-05-17T09:07:29.095Z,14.18
2018-05-17T09:09:58.193Z,13.90
2018-05-17T09:12:27.295Z,14.09
2018-05-17T09:14:57.133Z,13.83
2018-05-17T09:17:26.274Z,13.96
2018-05-17T09:19:57.680Z,14.08
2018-05-17T09:22:27.942Z,14.15
2018-05-17T09:24:56.249Z,13.93
2018-05-17T09:27:25.435Z,14.49
2018-05-17T09:29:53.759Z,14.31
2018-05-17T09:32:22.057Z,14.01
2018-05-17T09:34:51.150Z,14.38
2018-05-17T09:37:19.574Z,14.36
2018-05-17T09:39:48.676Z,14.56
2018-05-17T09:42:17.025Z,14.40
2018-05-17T09:44:46.133Z,14.59
2018-05-17T09:47:14.707Z,14.82
2018-05-17T09:49:43.252Z,14.66
2018-05-17T09:52:12.898Z,14.79
2018-05-17T09:54:41.312Z,14.68
2018-05-17T09:57:11.699Z,14.67
2018-05-17T09:59:40.038Z,14.10
2018-05-17T10:02:09.422Z,14.64
2018-05-17T10:04:40.377Z,14.68
2018-05-17T10:07:10.277Z,14.27
2018-05-17T10:09:40.289Z,14.33
2018-05-17T10:12:09.298Z,14.52
2018-05-17T10:14:38.369Z,14.70
2018-05-17T10:17:07.819Z,14.45
2018-05-17T10:19:36.865Z,14.53
2018-05-17T10:22:05.304Z,14.50
2018-05-17T10:24:34.039Z,14.21
2018-05-17T10:27:02.369Z,14.30
2018-05-17T10:29:30.739Z,14.46
2018-05-17T10:31:59.988Z,14.71
2018-05-17T10:34:29.146Z,14.29
2018-05-17T10:36:57.467Z,14.14
2018-05-17T10:39:27.501Z,14.26
2018-05-17T10:41:56.689Z,14.03
2018-05-17T10:44:26.434Z,14.26
2018-05-17T10:46:55.368Z,14.66
2018-05-17T10:49:24.235Z,14.69
2018-05-17T10:51:52.869Z,15.25
2018-05-17T10:54:21.304Z,15.14
2018-05-17T10:56:50.142Z,14.85
2018-05-17T10:59:18.532Z,14.45
2018-05-17T11:01:47.752Z,14.33
2018-05-17T11:04:16.952Z,14.52
2018-05-17T11:06:46.114Z,14.63
2018-05-17T11:09:14.466Z,14.19
2018-05-17T11:11:42.764Z,14.28
2018-05-17T11:14:11.092Z,14.21
2018-05-17T11:16:40.681Z,14.45
2018-05-17T11:19:09.040Z,14.35
2018-05-17T11:21:37.451Z,14.57
2018-05-17T11:24:06.590Z,14.68
2018-05-17T11:26:35.794Z,14.77
2018-05-17T11:29:04.675Z,14.53
2018-05-17T11:31:33.143Z,15.00
2018-05-17T11:34:03.020Z,15.28
2018-05-17T11:36:31.416Z,14.99
2018-05-17T11:38:59.712Z,14.88
2018-05-17T11:41:28.802Z,14.99
2018-05-17T11:43:59.649Z,14.38
2018-05-17T11:49:26.034Z,14.40
2018-05-17T11:51:54.846Z,14.24
2018-05-17T11:54:25.317Z,14.22
2018-05-17T11:56:55.280Z,14.16
2018-05-17T11:59:23.769Z,14.31
2018-05-17T12:01:52.230Z,14.12
2018-05-17T12:04:20.763Z,14.12
2018-05-17T12:06:49.381Z,14.30
2018-05-17T12:15:12.758Z,13.98
2018-05-17T12:17:41.147Z,13.99
2018-05-17T12:20:10.230Z,14.05
2018-05-17T12:22:41.651Z,13.98
2018-05-17T12:25:10.810Z,14.00
2018-05-17T12:27:39.694Z,13.77
2018-05-17T12:30:09.281Z,13.75
2018-05-17T12:32:38.658Z,13.89
2018-05-17T12:35:07.791Z,13.70
2018-05-17T12:37:37.568Z,13.78
2018-05-17T12:40:06.296Z,13.67
2018-05-17T12:42:36.681Z,13.76
2018-05-17T12:45:05.140Z,13.75
2018-05-17T12:47:33.522Z,13.90
2018-05-17T12:50:02.030Z,13.86
2018-05-17T12:52:30.381Z,13.85
2018-05-17T12:54:58.681Z,13.67
2018-05-17T12:57:27.270Z,13.67
2018-05-17T12:59:57.121Z,13.68
2018-05-17T13:02:25.471Z,13.72
2018-05-17T13:04:54.330Z,13.77
2018-05-17T13:07:23.442Z,13.76
2018-05-17T13:09:52.777Z,13.73
2018-05-17T13:12:22.086Z,13.60
2018-05-17T13:14:51.175Z,13.63
2018-05-17T13:17:19.539Z,13.70
2018-05-17T13:19:49.365Z,13.73
2018-05-17T13:22:18.434Z,13.69
2018-05-17T13:24:46.805Z,13.59
2018-05-17T13:27:17.405Z,13.46
2018-05-17T13:29:46.536Z,13.51
2018-05-17T13:32:14.838Z,13.54
2018-05-17T13:34:43.126Z,13.53
2018-05-17T13:37:12.303Z,13.78
2018-05-17T13:39:41.450Z,13.67
2018-05-17T13:42:11.767Z,13.54
2018-05-17T13:44:41.864Z,13.51
2018-05-17T13:47:10.726Z,13.44
2018-05-17T13:49:40.411Z,13.33
2018-05-17T13:52:09.029Z,13.48
2018-05-17T13:54:38.228Z,13.61
2018-05-17T13:57:06.869Z,13.40
2018-05-17T13:59:35.952Z,13.49
2018-05-17T14:02:04.249Z,13.64
2018-05-17T14:04:34.161Z,13.64
2018-05-17T14:07:03.304Z,13.73
2018-05-17T14:09:31.625Z,13.42
2018-05-17T14:12:01.432Z,13.39
2018-05-17T14:14:30.818Z,13.42
2018-05-17T14:16:59.186Z,13.44
2018-05-17T14:19:28.832Z,13.63
2018-05-17T14:21:58.412Z,13.56
2018-05-17T14:24:28.214Z,13.36
2018-05-17T14:26:57.451Z,13.22
2018-05-17T14:29:25.810Z,13.21
2018-05-17T14:31:54.942Z,13.29
2018-05-17T14:34:24.307Z,13.29
2018-05-17T14:36:53.522Z,13.32
2018-05-17T14:39:22.626Z,13.28
2018-05-17T14:41:53.095Z,13.26
2018-05-17T14:44:21.885Z,13.25
2018-05-17T14:46:51.039Z,13.23
2018-05-17T14:49:21.809Z,13.27
2018-05-17T14:51:50.639Z,13.20
2018-05-17T14:54:20.018Z,13.16
2018-05-17T14:56:49.763Z,13.13
2018-05-17T14:59:19.488Z,13.15
2018-05-17T15:01:47.793Z,13.15
2018-05-17T15:04:17.435Z,13.21
2018-05-17T15:06:45.840Z,13.13
2018-05-17T15:09:14.778Z,13.22
2018-05-17T15:11:45.138Z,13.06
2018-05-17T15:14:14.723Z,13.04
2018-05-17T15:16:43.065Z,13.01
2018-05-17T15:19:11.479Z,12.93
2018-05-17T15:21:40.609Z,12.96
2018-05-17T15:24:10.277Z,13.06
2018-05-17T15:26:39.394Z,12.96
2018-05-17T15:29:07.903Z,12.91
2018-05-17T15:31:36.632Z,12.87
2018-05-17T15:34:06.352Z,12.87
2018-05-17T15:36:36.301Z,12.89
2018-05-17T15:39:04.623Z,12.87
2018-05-17T15:41:33.006Z,12.86
2018-05-17T15:44:02.962Z,12.92
2018-05-17T15:46:31.404Z,13.01
2018-05-17T15:49:00.759Z,12.85
2018-05-17T15:51:29.445Z,12.82
2018-05-17T15:53:57.791Z,12.69
2018-05-17T15:56:27.346Z,12.77
2018-05-17T15:58:56.493Z,12.70
2018-05-17T16:01:26.411Z,12.69
2018-05-17T16:03:57.317Z,12.66
2018-05-17T16:06:25.790Z,12.61
2018-05-17T16:08:54.968Z,12.57
2018-05-17T16:11:23.403Z,12.67
2018-05-17T16:13:52.719Z,12.57
2018-05-17T16:16:23.098Z,12.59
2018-05-17T16:18:52.241Z,12.58
2018-05-17T16:21:21.302Z,12.61
2018-05-17T16:23:50.236Z,12.59
2018-05-17T16:26:19.088Z,12.68
2018-05-17T16:28:48.889Z,12.69
2018-05-17T16:31:17.366Z,12.48
2018-05-17T16:33:49.076Z,12.37
2018-05-17T16:36:18.998Z,12.38
2018-05-17T16:38:48.598Z,12.42
2018-05-17T16:41:18.024Z,12.53
2018-05-17T16:43:46.576Z,12.48
2018-05-17T16:46:15.710Z,12.55
2018-05-17T16:48:44.990Z,12.48
2018-05-17T16:51:13.890Z,12.32
2018-05-17T16:53:43.126Z,12.32
2018-05-17T16:56:11.852Z,12.29
2018-05-17T16:58:40.283Z,12.33
2018-05-17T17:01:09.510Z,12.37
2018-05-17T17:03:38.102Z,12.39
2018-05-17T17:06:08.810Z,12.37
2018-05-17T17:08:37.118Z,12.36
2018-05-17T17:11:06.277Z,12.32
2018-05-17T17:13:35.153Z,12.36
2018-05-17T17:16:03.459Z,12.37
2018-05-17T17:18:32.497Z,12.45
2018-05-17T17:21:01.182Z,12.51
2018-05-17T17:23:30.311Z,12.45
2018-05-17T17:25:58.625Z,12.20
2018-05-17T17:28:27.017Z,12.30
2018-05-17T17:30:55.436Z,12.32
2018-05-17T17:33:23.869Z,12.31
2018-05-17T17:35:53.265Z,12.29
2018-05-17T17:38:22.445Z,12.30
2018-05-17T17:40:51.139Z,12.23
2018-05-17T17:43:19.662Z,12.28
2018-05-17T17:45:48.813Z,12.38
2018-05-17T17:48:18.330Z,12.29
2018-05-17T17:50:48.274Z,12.38
2018-05-17T17:53:17.276Z,12.36
2018-05-17T17:55:45.887Z,12.34
2018-05-17T17:58:15.606Z,12.25
2018-05-17T18:00:45.456Z,12.25
2018-05-17T18:03:14.134Z,12.19
2018-05-17T18:05:42.549Z,12.30
2018-05-17T18:08:11.236Z,12.33
2018-05-17T18:10:40.037Z,12.27
2018-05-17T18:13:08.402Z,12.25
2018-05-17T18:15:37.496Z,12.24
2018-05-17T18:18:06.179Z,12.31
2018-05-17T18:20:35.547Z,12.28
2018-05-17T18:23:04.586Z,12.26
2018-05-17T18:30:18.351Z,12.25
2018-05-17T18:32:46.719Z,12.26
2018-05-17T18:35:15.368Z,12.25
2018-05-17T18:37:45.214Z,12.21
2018-05-17T18:40:13.791Z,12.26
2018-05-17T18:42:42.152Z,12.25
2018-05-17T18:45:11.508Z,12.37
2018-05-17T18:47:41.790Z,12.34
2018-05-17T18:50:10.631Z,12.37
2018-05-17T18:52:39.480Z,12.36
2018-05-17T18:55:07.927Z,12.27
2018-05-17T18:57:38.252Z,12.31
2018-05-17T19:00:08.919Z,12.33
2018-05-17T19:02:38.433Z,12.39
2018-05-17T19:05:07.547Z,12.36
2018-05-17T19:07:35.847Z,12.36
2018-05-17T19:10:05.099Z,12.32
2018-05-17T19:12:33.422Z,12.39
2018-05-17T19:15:01.753Z,12.38
2018-05-17T19:17:30.999Z,12.40
2018-05-17T19:19:59.573Z,12.43
2018-05-17T19:22:28.583Z,12.42
2018-05-17T19:24:57.241Z,12.35
2018-05-17T19:27:26.738Z,12.34
2018-05-17T19:29:55.739Z,12.41
2018-05-17T19:32:24.402Z,12.45
2018-05-17T19:34:52.753Z,12.37
2018-05-17T19:37:21.737Z,12.44
2018-05-17T19:39:50.446Z,12.44
2018-05-17T19:42:21.206Z,12.47
2018-05-17T19:44:50.344Z,12.43
2018-05-17T19:47:19.294Z,12.43
2018-05-17T19:49:52.170Z,12.48
2018-05-17T19:52:23.444Z,12.50
2018-05-17T19:54:52.894Z,12.53
2018-05-17T19:57:22.154Z,12.43
2018-05-17T19:59:51.539Z,12.43
2018-05-17T20:02:20.535Z,12.45
2018-05-17T20:04:48.878Z,12.51
2018-05-17T20:07:17.972Z,12.54
2018-05-17T20:09:46.526Z,12.55
2018-05-17T20:12:14.887Z,12.59
2018-05-17T20:14:43.676Z,12.55
2018-05-17T20:17:13.035Z,12.52
2018-05-17T20:19:44.264Z,12.44
2018-05-17T20:22:13.309Z,12.49
2018-05-17T20:24:41.627Z,12.45
2018-05-17T20:27:10.418Z,12.47
2018-05-17T20:29:38.919Z,12.49
2018-05-17T20:32:07.297Z,12.54
2018-05-17T20:34:36.698Z,12.55
2018-05-17T20:37:05.040Z,12.47
2018-05-17T20:39:33.892Z,12.57
2018-05-17T20:42:03.840Z,12.56
2018-05-17T20:44:33.355Z,12.61
2018-05-17T20:47:02.133Z,12.50
2018-05-17T20:49:30.639Z,12.53
2018-05-17T20:51:59.947Z,12.50
2018-05-17T20:54:28.611Z,12.55
2018-05-17T20:56:57.033Z,12.63
2018-05-17T20:59:27.074Z,12.60
2018-05-17T21:01:57.260Z,12.68
2018-05-17T21:04:25.892Z,12.63
2018-05-17T21:06:55.130Z,12.55
2018-05-17T21:09:23.542Z,12.60
2018-05-17T21:11:51.863Z,12.66
2018-05-17T21:14:21.413Z,12.57
2018-05-17T21:16:49.809Z,12.49
2018-05-17T21:19:18.148Z,12.52
2018-05-17T21:21:46.521Z,12.53
2018-05-17T21:24:15.258Z,12.49
2018-05-17T21:26:43.576Z,12.43
2018-05-17T21:29:11.951Z,12.46
2018-05-17T21:31:41.099Z,12.41
2018-05-17T21:34:09.586Z,12.45
2018-05-17T21:36:38.258Z,12.49
2018-05-17T21:39:06.594Z,12.45
2018-05-17T21:41:35.877Z,12.43
2018-05-17T21:44:06.029Z,12.45
2018-05-17T21:46:35.845Z,12.40
2018-05-17T21:49:04.327Z,12.38
2018-05-17T21:51:32.857Z,12.41
2018-05-17T21:54:01.234Z,12.49
2018-05-17T21:56:29.894Z,12.40
2018-05-17T21:58:58.274Z,12.39
2018-05-17T22:01:30.660Z,12.43
2018-05-17T22:03:59.355Z,12.46
2018-05-17T22:06:28.575Z,12.45
2018-05-17T22:08:56.965Z,12.39
2018-05-17T22:11:26.956Z,12.48
2018-05-17T22:13:56.072Z,12.47
2018-05-17T22:16:25.852Z,12.39
2018-05-17T22:18:54.790Z,12.36
2018-05-17T22:21:23.934Z,12.31
2018-05-17T22:23:52.248Z,12.39
2018-05-17T22:26:21.131Z,12.29
2018-05-17T22:28:49.501Z,12.24
2018-05-17T22:31:17.865Z,12.32
2018-05-17T22:33:46.505Z,12.20
2018-05-17T22:36:15.569Z,12.21
2018-05-17T22:38:44.829Z,12.15
2018-05-17T22:41:13.746Z,12.17
2018-05-17T22:43:42.670Z,12.17
2018-05-17T22:46:12.801Z,12.19
2018-05-17T22:48:41.875Z,12.11
2018-05-17T22:51:10.900Z,12.21
2018-05-17T22:53:40.112Z,12.17
2018-05-17T22:56:11.575Z,12.17
2018-05-17T22:58:39.904Z,12.12
2018-05-17T23:01:08.235Z,12.11
2018-05-17T23:03:37.471Z,12.18
2018-05-17T23:06:06.702Z,12.15
2018-05-17T23:08:36.970Z,12.15
2018-05-17T23:11:06.160Z,12.16
2018-05-17T23:13:35.159Z,12.03
2018-05-17T23:16:03.992Z,12.00
2018-05-17T23:18:35.623Z,12.01
2018-05-17T23:21:04.566Z,11.97
2018-05-17T23:23:35.240Z,12.01
2018-05-17T23:26:05.247Z,11.95
2018-05-17T23:28:33.548Z,11.96
2018-05-17T23:31:02.483Z,11.94
2018-05-17T23:33:31.712Z,11.93
2018-05-17T23:36:00.548Z,11.92
2018-05-17T23:38:29.562Z,11.93
2018-05-17T23:41:18.192Z,11.95
2018-05-17T23:43:47.281Z,11.91
2018-05-17T23:46:17.394Z,11.84
2018-05-17T23:48:45.741Z,11.84
2018-05-17T23:51:14.783Z,11.80
2018-05-17T23:53:44.052Z,11.88
2018-05-17T23:56:13.253Z,11.84
2018-05-17T23:58:42.066Z,11.87
